Gassaway, WV (26624)

6:12 PM EST on February 10, 2016 (GMT -0500)
Grapevine Circle | | Change Station
CLOSE
Current Station
Personal Weather Station
Location: Gassaway, WV
Elevation: 1270 ft
Nearby Weather Stations

Elev 1270 ft 38.66 °N, 80.74 °W | Updated 3 seconds ago

Snow
Snow
19.9 °F
Feels Like 20 °F
N
3.0
Wind Variable Wind from WNW
Gusts 3.0 mph

Today
High -- | Low -- °F
--% Chance of Precip.
Yesterday
High -- | Low -- °F
Precip. -- in
Pressure 29.90 in
Visibility 2.5 miles
Clouds Few 100 ft
Scattered Clouds 1600 ft
Mostly Cloudy 2100 ft
Windchill 20 °F
Dew Point 14 °F
Humidity 79%
Rainfall 0.00 in
Snow Depth Not available.
7:20 AM 5:54 PM
Waxing Crescent, 8% visible
METAR KW22 102255Z AUTO 00000KT 2 1/2SM -SN FEW001 SCT016 BKN021 M09/M11 A2990 RMK AO2
Pressure 29.90 in
Visibility 2.5 miles
Clouds Few 100 ft
Scattered Clouds 1600 ft
Mostly Cloudy 2100 ft
Windchill 20 °F
Dew Point 14 °F
Humidity 79%
Rainfall 0.00 in
Snow Depth Not available.
7:20 AM 5:54 PM
Waxing Crescent, 8% visible
METAR KW22 102255Z AUTO 00000KT 2 1/2SM -SN FEW001 SCT016 BKN021 M09/M11 A2990 RMK AO2

10-Day Weather Forecast

Almanac

Astronomy

Feb. 10, 2016 Rise Set
Actual Time
Civil Twilight
Nautical Twilight
Astronomical Twilight
Moon
Length of Visible Light
Length of Day
Tomorrow will be .
, % of the Moon is Illuminated

Today's Extremes

State Highs State Lows

Community

WunderPhotos

Upload Photos

1,891,933 photos uploaded!

WunderBlog® & News

Nearby

Air Quality

  Air Quality AQ Index Pollutant
Not available.

Snow Depth

Station Depth Elevation

Earthquake Activity

City Distance Mag. Time & Date
Minimum magnitude displayed is 2.5.

Coastal Water Temperatures

Place Temperature

Stations

Nearby Weather Stations

Station Location Temp. Windchill Dew Point Humidity Wind Precip. Elev Updated Type
                   

Watches & Warnings

There are currently no watches in effect.